KAPC/APC METAR and TAF weather

Enter ICAO airport designator
Station Type Date Time Source
KAPC METAR 2020/09/25 19:54 UTC NOAA

KAPC 251954Z 20009KT 10SM CLR 24/13 A3003 RMK AO2 SLP159 T02390128


Station Type Date Time Source
KAPC Decoded METAR 2020/09/25 19:54 UTC NOAA

NAPA COUNTY AIRPORT, CA, United States (KAPC) 38-12N 122-17W 13M
Sep 25, 2020 - 03:54 PM EDT / 2020.09.25 1954 UTC
Wind: from the SSW (200 degrees) at 10 MPH (9 KT):0
Visibility: 10 mile(s):0
Sky conditions: clear
Temperature: 75.0 F (23.9 C)
Dew Point: 55.0 F (12.8 C)
Relative Humidity: 49%
Pressure (altimeter): 30.03 in. Hg (1016 hPa)
ob: KAPC 251954Z 20009KT 10SM CLR 24/13 A3003 RMK AO2 SLP159 T02390128
cycle: 20

Station Type Date Time Source
KAPC TAF 2020/09/25 18:39 UTC NOAA

TAF KAPC 251738Z 2518/2618 VRB05KT P6SM FEW250
FM252000 25011KT P6SM FEW250
FM260300 VRB03KT 6SM FU HZ SKC
FM260700 27005KT 6SM FU HZ SKC

Example: see airport list